createdAt,value
2022-09-12T00:01:07.081Z,2266.67
2022-09-12T00:03:37.920Z,2266.67
2022-09-12T00:06:18.116Z,2266.67
2022-09-12T00:08:50.604Z,2266.67
2022-09-12T00:11:20.742Z,2266.67
2022-09-12T00:13:52.213Z,2266.67
2022-09-12T00:16:24.515Z,2266.67
2022-09-12T00:18:55.097Z,2266.67
2022-09-12T00:21:25.652Z,2266.67
2022-09-12T00:23:56.078Z,2266.67
2022-09-12T00:26:26.186Z,2266.67
2022-09-12T00:28:57.720Z,2266.67
2022-09-12T00:31:28.189Z,2266.67
2022-09-12T00:34:00.746Z,2266.67
2022-09-12T00:36:31.436Z,2266.67
2022-09-12T00:39:01.783Z,2266.67
2022-09-12T00:41:35.928Z,2266.67
2022-09-12T00:44:39.423Z,2266.67
2022-09-12T00:47:18.604Z,2266.67
2022-09-12T00:49:55.823Z,2266.67
2022-09-12T00:52:29.734Z,2266.67
2022-09-12T00:55:03.930Z,2266.67
2022-09-12T00:57:38.763Z,2266.67
2022-09-12T01:00:14.416Z,2266.67
2022-09-12T01:02:50.074Z,2266.67
2022-09-12T01:05:21.914Z,2266.67
2022-09-12T01:07:53.363Z,2266.67
2022-09-12T01:10:25.365Z,2266.67
2022-09-12T01:12:55.322Z,2266.67
2022-09-12T01:15:25.503Z,2266.67
2022-09-12T01:18:10.312Z,2266.67
2022-09-12T01:20:51.255Z,2266.67
2022-09-12T01:23:47.643Z,1664.27
2022-09-12T01:26:41.886Z,1699.50
2022-09-12T01:29:45.587Z,1819.77
2022-09-12T01:32:24.967Z,1793.20
2022-09-12T01:35:02.800Z,824.97
2022-09-12T01:37:38.747Z,941.50
2022-09-12T01:40:15.893Z,1135.80
2022-09-12T01:42:56.741Z,1166.03
2022-09-12T01:45:31.616Z,1261.87
2022-09-12T01:48:13.110Z,1289.00
2022-09-12T01:50:48.491Z,1387.00
2022-09-12T01:53:23.399Z,1211.30
2022-09-12T01:55:59.216Z,1273.17
2022-09-12T01:58:36.356Z,943.53
2022-09-12T02:01:11.195Z,949.43
2022-09-12T02:03:47.766Z,929.57
2022-09-12T02:06:21.747Z,1766.80
2022-09-12T02:08:55.626Z,2266.67
2022-09-12T02:11:25.938Z,2266.67
2022-09-12T02:14:00.479Z,2266.67
2022-09-12T02:16:35.470Z,2266.67
2022-09-12T02:19:12.469Z,2266.67
2022-09-12T02:21:47.640Z,2266.67
2022-09-12T02:24:19.103Z,2266.67
2022-09-12T02:26:53.363Z,2266.67
2022-09-12T02:29:23.552Z,2266.67
2022-09-12T02:31:58.750Z,2266.67
2022-09-12T02:34:42.852Z,2266.67
2022-09-12T02:37:23.577Z,2266.67
2022-09-12T02:39:55.340Z,2266.67
2022-09-12T02:42:26.024Z,2266.67
2022-09-12T02:44:58.147Z,2266.67
2022-09-12T02:47:32.422Z,2266.67
2022-09-12T02:50:05.348Z,2266.67
2022-09-12T02:52:36.568Z,2266.67
2022-09-12T02:55:08.070Z,2266.67
2022-09-12T02:57:38.717Z,2266.67
2022-09-12T03:00:10.212Z,2266.67
2022-09-12T03:02:55.628Z,2266.67
2022-09-12T03:05:32.520Z,2266.67
2022-09-12T03:08:36.351Z,2266.67
2022-09-12T03:11:19.478Z,2266.67
2022-09-12T03:13:58.876Z,2266.67
2022-09-12T03:16:38.282Z,2266.67
2022-09-12T03:19:19.354Z,2266.67
2022-09-12T03:21:57.545Z,2266.67
2022-09-12T03:24:33.486Z,2266.67
2022-09-12T03:27:09.939Z,2266.67
2022-09-12T03:29:41.879Z,2266.67
2022-09-12T03:32:11.934Z,2266.67
2022-09-12T03:34:42.135Z,2266.67
2022-09-12T03:37:14.268Z,2266.67
2022-09-12T03:39:44.330Z,2266.67
2022-09-12T03:42:14.494Z,2266.67
2022-09-12T03:44:44.469Z,2266.67
2022-09-12T03:47:14.515Z,2266.67
2022-09-12T03:49:44.578Z,2266.67
2022-09-12T03:52:15.987Z,2266.67
2022-09-12T03:54:46.072Z,1633.50
2022-09-12T03:57:16.519Z,1670.57
2022-09-12T03:59:46.615Z,1796.93
2022-09-12T04:02:16.875Z,1852.83
2022-09-12T04:04:48.862Z,675.27
2022-09-12T04:07:20.268Z,1814.73
2022-09-12T04:09:50.465Z,1775.30
2022-09-12T04:12:20.995Z,2266.67
2022-09-12T04:14:51.067Z,2266.67
2022-09-12T04:17:21.168Z,2266.67
2022-09-12T04:19:51.229Z,2266.67
2022-09-12T04:22:22.603Z,2266.67
2022-09-12T04:24:53.049Z,2266.67
2022-09-12T04:27:23.187Z,2266.67
2022-09-12T04:29:54.783Z,2266.67
2022-09-12T04:32:24.934Z,2266.67
2022-09-12T04:34:55.049Z,2266.67
2022-09-12T04:37:26.449Z,2266.67
2022-09-12T04:39:57.892Z,2266.67
2022-09-12T04:42:28.101Z,2266.67
2022-09-12T04:44:58.215Z,2266.67
2022-09-12T04:47:28.288Z,2266.67
2022-09-12T04:49:58.364Z,2266.67
2022-09-12T04:52:30.015Z,2266.67
2022-09-12T04:55:00.213Z,2266.67
2022-09-12T04:57:30.220Z,2266.67
2022-09-12T05:00:03.981Z,2266.67
2022-09-12T05:02:36.644Z,2266.67
2022-09-12T05:05:07.754Z,2266.67
2022-09-12T05:07:39.232Z,2266.67
2022-09-12T05:10:10.949Z,2266.67
2022-09-12T05:12:41.050Z,2266.67
2022-09-12T05:15:11.733Z,2266.67
2022-09-12T05:17:41.780Z,2266.67
2022-09-12T05:20:12.767Z,2266.67
2022-09-12T05:22:44.207Z,2266.67
2022-09-12T05:25:14.136Z,2266.67
2022-09-12T05:27:47.445Z,2266.67
2022-09-12T05:30:20.523Z,2266.67
2022-09-12T05:32:50.754Z,2266.67
2022-09-12T05:35:20.944Z,2266.67
2022-09-12T05:37:52.504Z,2266.67
2022-09-12T05:40:23.024Z,2266.67
2022-09-12T05:42:53.060Z,2266.67
2022-09-12T05:45:23.279Z,2266.67
2022-09-12T05:47:54.097Z,2266.67
2022-09-12T05:50:25.508Z,2266.67
2022-09-12T05:52:58.149Z,2266.67
2022-09-12T05:55:28.219Z,2266.67
2022-09-12T05:57:58.279Z,2266.67
2022-09-12T06:00:32.854Z,2266.67
2022-09-12T06:03:03.491Z,2266.67
2022-09-12T06:05:34.049Z,2266.67
2022-09-12T06:08:05.712Z,2266.67
2022-09-12T06:10:36.567Z,2266.67
2022-09-12T06:13:06.630Z,2266.67
2022-09-12T06:15:37.647Z,2266.67
2022-09-12T06:18:07.712Z,2266.67
2022-09-12T06:20:37.888Z,2266.67
2022-09-12T06:23:09.390Z,1778.10
2022-09-12T06:25:39.727Z,1891.63
2022-09-12T06:28:09.744Z,1095.53
2022-09-12T06:30:40.018Z,1469.53
2022-09-12T06:33:10.228Z,1489.90
2022-09-12T06:35:41.839Z,1477.27
2022-09-12T06:38:13.224Z,1137.30
2022-09-12T06:40:44.951Z,750.17
2022-09-12T06:43:15.009Z,1832.03
2022-09-12T06:45:49.820Z,1678.07
2022-09-12T06:48:20.063Z,2266.67
2022-09-12T06:50:58.388Z,2266.67
2022-09-12T06:53:33.285Z,2266.67
2022-09-12T06:56:05.855Z,2266.67
2022-09-12T06:58:36.920Z,2266.67
2022-09-12T07:01:09.474Z,2266.67
2022-09-12T07:03:40.818Z,2266.67
2022-09-12T07:06:13.066Z,2266.67
2022-09-12T07:08:44.682Z,2266.67
2022-09-12T07:11:16.433Z,2266.67
2022-09-12T07:13:48.748Z,2266.67
2022-09-12T07:16:20.119Z,2266.67
2022-09-12T07:18:52.121Z,2266.67
2022-09-12T07:21:22.196Z,2266.67
2022-09-12T07:23:55.205Z,2266.67
2022-09-12T07:26:26.885Z,2266.67
2022-09-12T07:29:13.241Z,2266.67
2022-09-12T07:31:49.579Z,2266.67
2022-09-12T07:34:19.720Z,2266.67
2022-09-12T07:36:50.155Z,2266.67
2022-09-12T07:39:27.067Z,2266.67
2022-09-12T07:41:57.866Z,2266.67
2022-09-12T07:44:27.938Z,2266.67
2022-09-12T07:46:57.974Z,2266.67
2022-09-12T07:49:28.004Z,2266.67
2022-09-12T07:51:56.146Z,2266.67
2022-09-12T07:54:24.870Z,2266.67
2022-09-12T07:56:55.340Z,2266.67
2022-09-12T07:59:48.432Z,2266.67
2022-09-12T08:02:17.423Z,2266.67
2022-09-12T08:04:47.663Z,2266.67
2022-09-12T08:07:18.260Z,2266.67
2022-09-12T08:09:47.900Z,2266.67
2022-09-12T08:12:17.801Z,2266.67
2022-09-12T08:14:46.153Z,2266.67
2022-09-12T08:17:14.426Z,2266.67
2022-09-12T08:19:42.697Z,2266.67
2022-09-12T08:22:11.188Z,2266.67
2022-09-12T08:24:40.470Z,2266.67
2022-09-12T08:27:09.421Z,2266.67
2022-09-12T08:29:38.919Z,2266.67
2022-09-12T08:32:07.454Z,2266.67
2022-09-12T08:34:35.799Z,2266.67
2022-09-12T08:37:04.072Z,2266.67
2022-09-12T08:39:33.676Z,2266.67
2022-09-12T08:42:03.928Z,2266.67
2022-09-12T08:45:08.927Z,2266.67
2022-09-12T08:47:39.706Z,2266.67
2022-09-12T08:50:17.668Z,2266.67
2022-09-12T08:52:55.933Z,2266.67
2022-09-12T08:55:33.677Z,2266.67
2022-09-12T08:58:03.475Z,2266.67
2022-09-12T09:00:41.659Z,2266.67
2022-09-12T09:03:44.143Z,2266.67
2022-09-12T09:06:24.590Z,2266.67
2022-09-12T09:09:04.985Z,2266.67
2022-09-12T09:11:50.859Z,2266.67
2022-09-12T09:15:02.775Z,2266.67
2022-09-12T09:17:39.471Z,2266.67
2022-09-12T09:20:18.693Z,2266.67
2022-09-12T09:22:50.512Z,2266.67
2022-09-12T09:25:23.180Z,2266.67
2022-09-12T09:27:59.268Z,2266.67
2022-09-12T09:30:28.608Z,2266.67
2022-09-12T09:33:01.302Z,2266.67
2022-09-12T09:35:40.173Z,2266.67
2022-09-12T09:38:23.347Z,2266.67
2022-09-12T09:41:02.447Z,2266.67
2022-09-12T09:43:30.503Z,2266.67
2022-09-12T09:46:00.445Z,2266.67
2022-09-12T09:48:32.514Z,2266.67
2022-09-12T09:51:02.989Z,2266.67
2022-09-12T09:53:38.452Z,2266.67
2022-09-12T09:56:12.740Z,2266.67
2022-09-12T09:58:41.417Z,2266.67
2022-09-12T10:01:16.951Z,2266.67
2022-09-12T10:03:51.998Z,2266.67
2022-09-12T10:06:26.851Z,2266.67
2022-09-12T10:09:07.551Z,2266.67
2022-09-12T10:11:36.524Z,2266.67
2022-09-12T10:14:04.871Z,2266.67
2022-09-12T10:16:34.583Z,2266.67
2022-09-12T10:19:05.196Z,2266.67
2022-09-12T10:21:35.801Z,2266.67
2022-09-12T10:24:14.077Z,2266.67
2022-09-12T10:26:44.074Z,2266.67
2022-09-12T10:29:16.605Z,2266.67
2022-09-12T10:31:51.084Z,2266.67
2022-09-12T10:34:30.481Z,2266.67
2022-09-12T10:37:05.387Z,2266.67
2022-09-12T10:39:36.036Z,2266.67
2022-09-12T10:42:05.520Z,2266.67
2022-09-12T10:44:35.752Z,2266.67
2022-09-12T10:47:22.888Z,2266.67
2022-09-12T10:49:52.281Z,2266.67
2022-09-12T10:52:24.341Z,2266.67
2022-09-12T10:54:53.147Z,2266.67
2022-09-12T10:57:45.816Z,2266.67
2022-09-12T11:00:18.047Z,2266.67
2022-09-12T11:02:53.306Z,2266.67
2022-09-12T11:05:45.027Z,2266.67
2022-09-12T11:08:31.101Z,2266.67
2022-09-12T11:11:05.753Z,2266.67
2022-09-12T11:14:01.017Z,2266.67
2022-09-12T11:16:42.669Z,2266.67
2022-09-12T11:19:28.721Z,2266.67
2022-09-12T11:22:21.512Z,2266.67
2022-09-12T11:25:29.830Z,2266.67
2022-09-12T11:28:21.925Z,2266.67
2022-09-12T11:31:07.863Z,2266.67
2022-09-12T11:33:43.350Z,2266.67
2022-09-12T11:36:25.338Z,2266.67
2022-09-12T11:39:03.086Z,2266.67
2022-09-12T11:41:33.820Z,2266.67
2022-09-12T11:44:11.441Z,2266.67
2022-09-12T11:46:40.544Z,2266.67
2022-09-12T11:49:20.059Z,2266.67
2022-09-12T11:51:54.897Z,2266.67
2022-09-12T11:54:29.955Z,2266.67
2022-09-12T11:57:07.828Z,2266.67
2022-09-12T11:59:44.154Z,2266.67
2022-09-12T12:02:16.005Z,2266.67
2022-09-12T12:05:00.311Z,2266.67
2022-09-12T12:07:36.382Z,2266.67
2022-09-12T12:10:06.529Z,2266.67
2022-09-12T12:12:34.718Z,2266.67
2022-09-12T12:15:03.428Z,2266.67
2022-09-12T12:17:32.068Z,2266.67
2022-09-12T12:20:07.421Z,2266.67
2022-09-12T12:22:37.363Z,2266.67
2022-09-12T12:25:29.008Z,2266.67
2022-09-12T12:28:01.702Z,2266.67
2022-09-12T12:31:04.395Z,2266.67
2022-09-12T12:34:03.476Z,2266.67
2022-09-12T12:36:44.992Z,2266.67
2022-09-12T12:40:05.808Z,2266.67
2022-09-12T12:43:08.886Z,2266.67
2022-09-12T12:45:49.970Z,2266.67
2022-09-12T12:48:20.377Z,2266.67
2022-09-12T12:50:48.730Z,2266.67
2022-09-12T12:53:21.055Z,2266.67
2022-09-12T12:55:52.104Z,2266.67
2022-09-12T12:58:30.552Z,2266.67
2022-09-12T13:01:12.419Z,2266.67
2022-09-12T13:03:45.300Z,2266.67
2022-09-12T13:06:33.372Z,2266.67
2022-09-12T13:09:05.404Z,2266.67
2022-09-12T13:11:38.954Z,2266.67
2022-09-12T13:14:29.137Z,2266.67
2022-09-12T13:17:01.015Z,2266.67
2022-09-12T13:19:31.912Z,2266.67
2022-09-12T13:22:02.693Z,2266.67
2022-09-12T13:24:31.013Z,2266.67
2022-09-12T13:26:59.055Z,2266.67
2022-09-12T13:29:29.276Z,2266.67
2022-09-12T13:31:59.531Z,2266.67
2022-09-12T13:34:31.701Z,2266.67
2022-09-12T13:37:33.125Z,2266.67
2022-09-12T13:40:17.159Z,2266.67
2022-09-12T13:42:49.497Z,2266.67
2022-09-12T13:45:22.010Z,2266.67
2022-09-12T13:47:56.586Z,2266.67
2022-09-12T13:50:29.071Z,2266.67
2022-09-12T13:52:59.374Z,2266.67
2022-09-12T13:55:32.552Z,2266.67
2022-09-12T13:58:03.168Z,2266.67
2022-09-12T14:00:34.894Z,2266.67
2022-09-12T14:03:31.839Z,2266.67
2022-09-12T14:06:01.396Z,2266.67
2022-09-12T14:08:30.224Z,2266.67
2022-09-12T14:10:58.361Z,2266.67
2022-09-12T14:13:28.059Z,2266.67
2022-09-12T14:15:59.808Z,2266.67
2022-09-12T14:18:31.174Z,2266.67
2022-09-12T14:21:10.323Z,2266.67
2022-09-12T14:23:42.511Z,2266.67
2022-09-12T14:26:12.530Z,2266.67
2022-09-12T14:28:42.852Z,2266.67
2022-09-12T14:31:25.434Z,2266.67
2022-09-12T14:33:54.988Z,2266.67
2022-09-12T14:36:28.319Z,2266.67
2022-09-12T14:38:59.652Z,2266.67
2022-09-12T14:41:30.937Z,2266.67
2022-09-12T14:44:01.659Z,2266.67
2022-09-12T14:46:35.830Z,2266.67
2022-09-12T14:49:10.345Z,2266.67
2022-09-12T14:51:40.833Z,2266.67
2022-09-12T14:54:37.233Z,2266.67
2022-09-12T14:57:07.355Z,2266.67
2022-09-12T14:59:40.365Z,2266.67
2022-09-12T15:02:27.190Z,2266.67
2022-09-12T15:05:15.347Z,2266.67
2022-09-12T15:07:47.548Z,2266.67
2022-09-12T15:10:22.051Z,2266.67
2022-09-12T15:12:50.148Z,2266.67
2022-09-12T15:15:19.996Z,2266.67
2022-09-12T15:17:49.694Z,2266.67
2022-09-12T15:20:17.996Z,2266.67
2022-09-12T15:22:46.147Z,2266.67
2022-09-12T15:25:14.633Z,2266.67
2022-09-12T15:27:43.106Z,2266.67
2022-09-12T15:30:13.255Z,2266.67
2022-09-12T15:32:44.264Z,2266.67
2022-09-12T15:35:17.156Z,2266.67
2022-09-12T15:37:45.712Z,2266.67
2022-09-12T15:40:13.852Z,2266.67
2022-09-12T15:42:42.514Z,2266.67
2022-09-12T15:45:18.603Z,2266.67
2022-09-12T15:47:47.132Z,2266.67
2022-09-12T15:50:17.050Z,2266.67
2022-09-12T15:52:45.381Z,2266.67
2022-09-12T15:55:18.334Z,2266.67
2022-09-12T15:57:46.784Z,2266.67
2022-09-12T16:00:15.925Z,2266.67
2022-09-12T16:02:44.156Z,2266.67
2022-09-12T16:05:16.248Z,2266.67
2022-09-12T16:07:44.886Z,2266.67
2022-09-12T16:10:17.167Z,2266.67
2022-09-12T16:12:46.103Z,2266.67
2022-09-12T16:15:16.065Z,2266.67
2022-09-12T16:17:44.225Z,2266.67
2022-09-12T16:20:13.030Z,2266.67
2022-09-12T16:22:43.070Z,2266.67
2022-09-12T16:25:11.460Z,2266.67
2022-09-12T16:27:39.838Z,2266.67
2022-09-12T16:30:09.564Z,2266.67
2022-09-12T16:32:38.142Z,2266.67
2022-09-12T16:35:07.485Z,2266.67
2022-09-12T16:37:35.737Z,2266.67
2022-09-12T16:40:07.017Z,2266.67
2022-09-12T16:42:35.759Z,2266.67
2022-09-12T16:45:04.019Z,2266.67
2022-09-12T16:47:33.362Z,2266.67
2022-09-12T16:50:01.536Z,2266.67
2022-09-12T16:52:30.228Z,2266.67
2022-09-12T16:54:58.392Z,2266.67
2022-09-12T16:57:27.950Z,2266.67
2022-09-12T16:59:55.929Z,2266.67
2022-09-12T17:02:23.992Z,2266.67
2022-09-12T17:04:52.614Z,2266.67
2022-09-12T17:07:21.055Z,2266.67
2022-09-12T17:09:49.399Z,2266.67
2022-09-12T17:12:17.432Z,2266.67
2022-09-12T17:14:46.960Z,2266.67
2022-09-12T17:17:15.042Z,2266.67
2022-09-12T17:19:43.422Z,2266.67
2022-09-12T17:22:11.379Z,2266.67
2022-09-12T17:24:40.440Z,2266.67
2022-09-12T17:27:08.594Z,2266.67
2022-09-12T17:29:38.506Z,2266.67
2022-09-12T17:32:07.980Z,2266.67
2022-09-12T17:34:36.085Z,2266.67
2022-09-12T17:37:04.632Z,2266.67
2022-09-12T17:39:32.649Z,2266.67
2022-09-12T17:42:00.664Z,2266.67
2022-09-12T17:44:29.708Z,2266.67
2022-09-12T17:46:57.776Z,2266.67
2022-09-12T17:49:27.409Z,2266.67
2022-09-12T17:51:56.058Z,2266.67
2022-09-12T17:54:24.472Z,2266.67
2022-09-12T17:56:52.517Z,2266.67
2022-09-12T17:59:24.314Z,2266.67
2022-09-12T18:02:10.162Z,2266.67
2022-09-12T18:04:40.580Z,2266.67
2022-09-12T18:07:09.230Z,2266.67
2022-09-12T18:09:37.336Z,2266.67
2022-09-12T18:12:05.621Z,2266.67
2022-09-12T18:14:34.862Z,2266.67
2022-09-12T18:17:02.976Z,2266.67
2022-09-12T18:19:31.917Z,2266.67
2022-09-12T18:22:01.349Z,2266.67
2022-09-12T18:24:29.718Z,2266.67
2022-09-12T18:26:57.696Z,2266.67
2022-09-12T18:29:27.927Z,2266.67
2022-09-12T18:31:56.611Z,2266.67
2022-09-12T18:34:24.752Z,2266.67
2022-09-12T18:36:54.806Z,2266.67
2022-09-12T18:39:27.638Z,2266.67
2022-09-12T18:41:56.606Z,2266.67
2022-09-12T18:44:24.679Z,2266.67
2022-09-12T18:46:52.817Z,2266.67
2022-09-12T18:49:21.195Z,2266.67
2022-09-12T18:51:49.413Z,2266.67
2022-09-12T18:54:17.893Z,2266.67
2022-09-12T18:56:47.706Z,2266.67
2022-09-12T18:59:16.010Z,2266.67
2022-09-12T19:01:44.444Z,2266.67
2022-09-12T19:04:14.352Z,2266.67
2022-09-12T19:06:44.401Z,2266.67
2022-09-12T19:09:13.956Z,2266.67
2022-09-12T19:11:48.627Z,2266.67
2022-09-12T19:14:19.392Z,2266.67
2022-09-12T19:16:47.640Z,2266.67
2022-09-12T19:19:15.692Z,2266.67
2022-09-12T19:21:44.276Z,2266.67
2022-09-12T19:24:14.298Z,2266.67
2022-09-12T19:26:42.551Z,2266.67
2022-09-12T19:29:13.849Z,2266.67
2022-09-12T19:31:43.452Z,2266.67
2022-09-12T19:34:13.302Z,2266.67
2022-09-12T19:36:46.799Z,2266.67
2022-09-12T19:39:16.456Z,2266.67
2022-09-12T19:41:45.003Z,2266.67
2022-09-12T19:44:13.324Z,2266.67
2022-09-12T19:46:42.974Z,2266.67
2022-09-12T19:49:12.648Z,2266.67
2022-09-12T19:51:41.147Z,2266.67
2022-09-12T19:54:09.476Z,2266.67
2022-09-12T19:56:37.725Z,2266.67
2022-09-12T19:59:05.927Z,2266.67
2022-09-12T20:01:36.787Z,2266.67
2022-09-12T20:04:06.787Z,2266.67
2022-09-12T20:06:35.051Z,2266.67
2022-09-12T20:09:03.290Z,2266.67
2022-09-12T20:11:31.604Z,2266.67
2022-09-12T20:14:00.184Z,2266.67
2022-09-12T20:16:37.484Z,2266.67
2022-09-12T20:19:25.682Z,2266.67
2022-09-12T20:22:06.484Z,2266.67
2022-09-12T20:24:49.693Z,2266.67
2022-09-12T20:27:21.750Z,2266.67
2022-09-12T20:29:54.512Z,2266.67
2022-09-12T20:32:23.755Z,2266.67
2022-09-12T20:35:06.056Z,2266.67
2022-09-12T20:37:36.397Z,2266.67
2022-09-12T20:40:14.373Z,2266.67
2022-09-12T20:42:59.024Z,2266.67
2022-09-12T20:45:33.845Z,2266.67
2022-09-12T20:48:10.839Z,2266.67
2022-09-12T20:50:46.579Z,2266.67
2022-09-12T20:53:16.528Z,2266.67
2022-09-12T20:55:53.683Z,2266.67
2022-09-12T20:58:24.705Z,2266.67
2022-09-12T21:00:55.817Z,2266.67
2022-09-12T21:03:34.488Z,2266.67
2022-09-12T21:06:06.193Z,2266.67
2022-09-12T21:08:42.444Z,2266.67
2022-09-12T21:11:18.041Z,2266.67
2022-09-12T21:13:53.166Z,2266.67
2022-09-12T21:16:29.192Z,2266.67
2022-09-12T21:19:06.009Z,2266.67
2022-09-12T21:21:38.916Z,2266.67
2022-09-12T21:24:29.287Z,2266.67
2022-09-12T21:27:04.386Z,2266.67
2022-09-12T21:29:35.143Z,2266.67
2022-09-12T21:32:13.434Z,2266.67
2022-09-12T21:34:49.050Z,2266.67
2022-09-12T21:37:21.300Z,2266.67
2022-09-12T21:39:53.127Z,2266.67
2022-09-12T21:42:27.113Z,2266.67
2022-09-12T21:45:03.502Z,2266.67
2022-09-12T21:47:44.078Z,2266.67
2022-09-12T21:50:17.776Z,2266.67
2022-09-12T21:52:50.541Z,2266.67
2022-09-12T21:55:27.420Z,2266.67
2022-09-12T21:57:56.636Z,2266.67
2022-09-12T22:00:32.550Z,2266.67
2022-09-12T22:03:01.943Z,2266.67
2022-09-12T22:05:31.905Z,2266.67
2022-09-12T22:08:04.070Z,2266.67
2022-09-12T22:10:35.339Z,2266.67
2022-09-12T22:13:04.346Z,2266.67
2022-09-12T22:15:40.480Z,2266.67
2022-09-12T22:18:12.830Z,2266.67
2022-09-12T22:20:52.366Z,2266.67
2022-09-12T22:23:42.632Z,2266.67
2022-09-12T22:26:14.214Z,2266.67
2022-09-12T22:28:43.385Z,2266.67
2022-09-12T22:31:16.685Z,2266.67
2022-09-12T22:33:53.650Z,2266.67
2022-09-12T22:36:39.317Z,2266.67
2022-09-12T22:39:20.418Z,2266.67
2022-09-12T22:41:49.906Z,2266.67
2022-09-12T22:44:18.738Z,2266.67
2022-09-12T22:46:50.652Z,2266.67
2022-09-12T22:49:25.915Z,2266.67
2022-09-12T22:51:54.384Z,2266.67
2022-09-12T22:54:30.447Z,2266.67
2022-09-12T22:57:08.296Z,2266.67
2022-09-12T22:59:44.797Z,2266.67
2022-09-12T23:02:13.187Z,2266.67
2022-09-12T23:04:45.665Z,2266.67
2022-09-12T23:07:19.048Z,2266.67
2022-09-12T23:09:55.661Z,2266.67
2022-09-12T23:12:26.461Z,2266.67
2022-09-12T23:14:57.207Z,2266.67
2022-09-12T23:17:35.089Z,2266.67
2022-09-12T23:20:04.235Z,2266.67
2022-09-12T23:22:35.345Z,2266.67
2022-09-12T23:25:07.284Z,2266.67
2022-09-12T23:27:36.273Z,2266.67
2022-09-12T23:30:14.571Z,2266.67
2022-09-12T23:32:50.556Z,2266.67
2022-09-12T23:35:29.886Z,2266.67
2022-09-12T23:38:14.766Z,2266.67
2022-09-12T23:40:53.665Z,2266.67
2022-09-12T23:43:28.214Z,2266.67
2022-09-12T23:46:04.264Z,2266.67
2022-09-12T23:48:38.558Z,2266.67
2022-09-12T23:51:24.082Z,2266.67
2022-09-12T23:53:58.859Z,2266.67
2022-09-12T23:56:33.962Z,2266.67
2022-09-12T23:59:13.786Z,2266.67
